Time;durP1;ratioP1;P1;durP2;ratioP2;P2;SDS_P1;SDS_P2;PMS_P1;PMS_P2;Temp;Humidity;BMP_temperature;BMP_pressure;BME280_temperature;BME280_humidity;BME280_pressure;Samples;Min_cycle;Max_cycle;Signal;HPM_P1;HPM_P2
2023/12/03 00:00:13;;;;;;;;;;;-3.70;99.90;;;;;;5103169;28;19920;-71
2023/12/03 00:02:41;;;;;;;;;;;-3.70;99.90;;;;;;5103016;28;20209;-71
2023/12/03 00:05:08;;;;;;;;;;;-3.60;99.90;;;;;;5102748;28;19991;-70
2023/12/03 00:07:35;;;;;;;;;;;-3.70;99.90;;;;;;5103350;28;19974;-71
2023/12/03 00:10:02;;;;;;;;;;;-3.70;99.90;;;;;;5103274;28;19979;-71
2023/12/03 00:12:30;;;;;;;;;;;-3.80;99.90;;;;;;5103366;28;19955;-71
2023/12/03 00:14:57;;;;;;;;;;;-3.80;99.90;;;;;;5102532;28;19966;-71
2023/12/03 00:17:24;;;;;;;;;;;-3.70;99.90;;;;;;5101951;28;20113;-71
2023/12/03 00:19:51;;;;;;;;;;;-3.70;99.90;;;;;;5106305;28;19920;-70
2023/12/03 00:22:17;;;;;;;;;;;-3.80;99.90;;;;;;5106948;28;19927;-71
2023/12/03 00:24:44;;;;;;;;;;;-3.80;99.90;;;;;;5106110;28;19920;-69
2023/12/03 00:27:10;;;;;;;;;;;-3.80;99.90;;;;;;5106688;28;20217;-71
2023/12/03 00:29:38;;;;;;;;;;;-3.80;99.90;;;;;;5106826;28;19920;-71
2023/12/03 00:32:05;;;;;;;;;;;-3.70;99.90;;;;;;5106816;28;20117;-71
2023/12/03 00:34:32;;;;;;;;;;;-3.70;99.90;;;;;;5106304;28;19959;-70
2023/12/03 00:36:59;;;;;;;;;;;-3.70;99.90;;;;;;5106882;28;19979;-71
2023/12/03 00:39:25;;;;;;;;;;;-3.70;99.90;;;;;;5106589;28;19999;-71
2023/12/03 00:41:52;;;;;;;;;;;-3.60;99.90;;;;;;5106122;28;19928;-75
2023/12/03 00:44:19;;;;;;;;;;;-3.70;99.90;;;;;;5105701;28;19919;-70
2023/12/03 00:46:47;;;;;;;;;;;-3.70;99.90;;;;;;5106396;28;19920;-70
2023/12/03 00:49:13;;;;;;;;;;;-3.70;99.90;;;;;;5106060;28;19951;-70
2023/12/03 00:51:40;;;;;;;;;;;-3.70;99.90;;;;;;5106360;28;19926;-70
2023/12/03 00:54:07;;;;;;;;;;;-3.70;99.90;;;;;;5105724;28;20007;-70
2023/12/03 00:56:34;;;;;;;;;;;-3.70;99.90;;;;;;5106472;28;20147;-70
2023/12/03 00:59:00;;;;;;;;;;;-3.80;99.90;;;;;;5105814;28;19986;-69
2023/12/03 01:01:27;;;;;;;;;;;-3.80;99.90;;;;;;5105649;28;19942;-70
2023/12/03 01:03:55;;;;;;;;;;;-3.70;99.90;;;;;;5105120;28;19920;-70
2023/12/03 01:06:21;;;;;;;;;;;-3.70;99.90;;;;;;5105992;28;19956;-69
2023/12/03 01:08:48;;;;;;;;;;;-3.70;99.90;;;;;;5105576;28;19920;-70
2023/12/03 01:11:15;;;;;;;;;;;-3.60;99.90;;;;;;5105878;28;19987;-70
2023/12/03 01:13:41;;;;;;;;;;;-3.60;99.90;;;;;;5105314;28;19956;-70
2023/12/03 01:16:14;;;;;;;;;;;-3.60;99.90;;;;;;5106033;28;19982;-70
2023/12/03 01:18:40;;;;;;;;;;;-3.60;99.90;;;;;;5103960;28;19920;-70
2023/12/03 01:21:09;;;;;;;;;;;-3.50;99.90;;;;;;5105862;28;19991;-70
2023/12/03 01:23:35;;;;;;;;;;;-3.50;99.90;;;;;;5104969;28;19992;-70
2023/12/03 01:26:02;;;;;;;;;;;-3.50;99.90;;;;;;5105489;28;19920;-70
2023/12/03 01:28:28;;;;;;;;;;;-3.50;99.90;;;;;;5105547;28;19936;-70
2023/12/03 01:30:55;;;;;;;;;;;-3.40;99.90;;;;;;5104772;28;20273;-70
2023/12/03 01:33:22;;;;;;;;;;;-3.40;99.90;;;;;;5104911;28;19920;-70
2023/12/03 01:35:48;;;;;;;;;;;-3.50;99.90;;;;;;5105628;28;19991;-69
2023/12/03 01:38:16;;;;;;;;;;;-3.50;99.90;;;;;;5105210;28;19991;-70
2023/12/03 01:40:51;;;;;;;;;;;-3.50;99.90;;;;;;5104482;28;19987;-70
2023/12/03 01:43:17;;;;;;;;;;;-3.50;99.90;;;;;;5104852;28;19920;-69
2023/12/03 01:45:45;;;;;;;;;;;-3.50;99.90;;;;;;5105493;28;19920;-70
2023/12/03 01:48:12;;;;;;;;;;;-3.40;99.90;;;;;;5105333;28;19920;-69
2023/12/03 01:50:39;;;;;;;;;;;-3.40;99.90;;;;;;5104920;28;19964;-70
2023/12/03 01:53:06;;;;;;;;;;;-3.40;99.90;;;;;;5104646;28;20358;-70
2023/12/03 01:55:34;;;;;;;;;;;-3.50;99.90;;;;;;5104655;28;19920;-70
2023/12/03 01:58:01;;;;;;;;;;;-3.50;99.90;;;;;;5105087;28;19996;-70
2023/12/03 02:00:27;;;;;;;;;;;-3.50;99.90;;;;;;5104786;28;19986;-70
2023/12/03 02:02:54;;;;;;;;;;;-3.40;99.90;;;;;;5104772;28;19920;-70
2023/12/03 02:05:21;;;;;;;;;;;-3.50;99.90;;;;;;5104676;28;19927;-70
2023/12/03 02:07:47;;;;;;;;;;;-3.50;99.90;;;;;;5104866;28;19920;-70
2023/12/03 02:10:14;;;;;;;;;;;-3.50;99.90;;;;;;5104503;28;19951;-70
2023/12/03 02:12:42;;;;;;;;;;;-3.60;99.90;;;;;;5104751;28;19983;-70
2023/12/03 02:15:09;;;;;;;;;;;-3.60;99.90;;;;;;5104060;28;19955;-70
2023/12/03 02:17:36;;;;;;;;;;;-3.60;99.90;;;;;;5102948;28;19920;-70
2023/12/03 02:20:03;;;;;;;;;;;-3.70;99.90;;;;;;5096584;28;19927;-70
2023/12/03 02:22:30;;;;;;;;;;;-3.70;99.90;;;;;;5104640;28;19924;-70
2023/12/03 02:24:58;;;;;;;;;;;-3.70;99.90;;;;;;5104044;28;19966;-70
2023/12/03 02:27:24;;;;;;;;;;;-3.70;99.90;;;;;;5104537;28;19990;-70
2023/12/03 02:29:51;;;;;;;;;;;-3.70;99.90;;;;;;5104243;28;19926;-70
2023/12/03 02:32:18;;;;;;;;;;;-3.60;99.90;;;;;;5104411;28;19979;-70
2023/12/03 02:34:44;;;;;;;;;;;-3.60;99.90;;;;;;5103713;28;19920;-70
2023/12/03 02:37:11;;;;;;;;;;;-3.60;99.90;;;;;;5104278;28;19958;-70
2023/12/03 02:39:37;;;;;;;;;;;-3.60;99.90;;;;;;5103875;28;19926;-70
2023/12/03 02:42:05;;;;;;;;;;;-3.70;99.90;;;;;;5101642;28;19983;-70
2023/12/03 02:44:32;;;;;;;;;;;-3.60;99.90;;;;;;5103439;28;20229;-70
2023/12/03 02:46:59;;;;;;;;;;;-3.60;99.90;;;;;;5104235;28;19955;-70
2023/12/03 02:49:25;;;;;;;;;;;-3.60;99.90;;;;;;5104086;28;19987;-70
2023/12/03 02:51:52;;;;;;;;;;;-3.60;99.90;;;;;;5104208;28;19928;-70
2023/12/03 02:54:18;;;;;;;;;;;-3.60;99.90;;;;;;5103398;28;19920;-70
2023/12/03 02:56:45;;;;;;;;;;;-3.60;99.90;;;;;;5104172;28;19983;-69
2023/12/03 02:59:13;;;;;;;;;;;-3.60;99.90;;;;;;5103955;28;19920;-70
2023/12/03 03:01:40;;;;;;;;;;;-3.60;99.90;;;;;;5103558;28;19920;-70
2023/12/03 03:04:07;;;;;;;;;;;-3.60;99.90;;;;;;5103370;28;19932;-70
2023/12/03 03:06:33;;;;;;;;;;;-3.60;99.90;;;;;;5104103;28;19987;-70
2023/12/03 03:09:00;;;;;;;;;;;-3.60;99.90;;;;;;5103601;28;19926;-70
2023/12/03 03:11:27;;;;;;;;;;;-3.60;99.90;;;;;;5104049;28;19987;-70
2023/12/03 03:13:53;;;;;;;;;;;-3.60;99.90;;;;;;5102940;28;19982;-70
2023/12/03 03:16:24;;;;;;;;;;;-3.60;99.90;;;;;;5103768;28;19982;-69
2023/12/03 03:18:51;;;;;;;;;;;-3.60;99.90;;;;;;5103421;28;20206;-70
2023/12/03 03:21:17;;;;;;;;;;;-3.60;99.90;;;;;;5103894;28;19920;-68
2023/12/03 03:23:44;;;;;;;;;;;-3.60;99.90;;;;;;5103119;28;20202;-70
2023/12/03 03:26:10;;;;;;;;;;;-3.70;99.90;;;;;;5103820;28;19927;-70
2023/12/03 03:28:37;;;;;;;;;;;-3.60;99.90;;;;;;5103659;28;20216;-70
2023/12/03 03:31:04;;;;;;;;;;;-3.60;99.90;;;;;;5095651;28;19924;-69
2023/12/03 03:33:32;;;;;;;;;;;-3.60;99.90;;;;;;5102796;28;19986;-70
2023/12/03 03:35:58;;;;;;;;;;;-3.50;99.90;;;;;;5103700;28;19999;-70
2023/12/03 03:38:25;;;;;;;;;;;-3.50;99.90;;;;;;5103540;28;20109;-70
2023/12/03 03:40:52;;;;;;;;;;;-3.60;99.90;;;;;;5101483;28;19920;-70
2023/12/03 03:43:19;;;;;;;;;;;-3.60;99.90;;;;;;5102694;28;19920;-70
2023/12/03 03:45:45;;;;;;;;;;;-3.70;99.90;;;;;;5103611;28;19983;-70
2023/12/03 03:48:12;;;;;;;;;;;-3.70;99.90;;;;;;5103417;28;19928;-70
2023/12/03 03:50:40;;;;;;;;;;;-3.80;99.90;;;;;;5103203;28;19983;-69
2023/12/03 03:53:06;;;;;;;;;;;-3.80;99.90;;;;;;5104194;28;19991;-69
2023/12/03 03:55:33;;;;;;;;;;;-3.90;99.90;;;;;;5106806;28;19935;-70
2023/12/03 03:58:00;;;;;;;;;;;-3.90;99.90;;;;;;5106944;28;19962;-70
2023/12/03 04:00:26;;;;;;;;;;;-4.00;99.90;;;;;;5106943;28;19991;-70
2023/12/03 04:02:53;;;;;;;;;;;-4.00;99.90;;;;;;5107147;28;19920;-70
2023/12/03 04:05:19;;;;;;;;;;;-4.10;99.90;;;;;;5106815;28;19959;-70
2023/12/03 04:07:46;;;;;;;;;;;-4.10;99.90;;;;;;5107154;28;19926;-70
2023/12/03 04:10:13;;;;;;;;;;;-4.10;99.90;;;;;;5106946;28;19942;-70
2023/12/03 04:12:41;;;;;;;;;;;-4.00;99.90;;;;;;5106735;28;19987;-70
2023/12/03 04:15:08;;;;;;;;;;;-4.10;99.90;;;;;;5106116;28;20221;-70
2023/12/03 04:17:35;;;;;;;;;;;-4.10;99.90;;;;;;5104890;28;19920;-70
2023/12/03 04:20:02;;;;;;;;;;;-4.00;99.90;;;;;;5106851;28;19985;-70
2023/12/03 04:22:28;;;;;;;;;;;-4.00;99.90;;;;;;5106306;28;20182;-70
2023/12/03 04:24:56;;;;;;;;;;;-4.00;99.90;;;;;;5106166;28;19916;-70
2023/12/03 04:27:22;;;;;;;;;;;-4.00;99.90;;;;;;5106539;28;19920;-70
2023/12/03 04:29:49;;;;;;;;;;;-4.00;99.90;;;;;;5106780;28;19920;-70
2023/12/03 04:32:15;;;;;;;;;;;-4.00;99.90;;;;;;5105116;28;19920;-70
2023/12/03 04:34:42;;;;;;;;;;;-4.00;99.90;;;;;;5105704;28;19983;-69
2023/12/03 04:37:09;;;;;;;;;;;-4.00;99.90;;;;;;5106809;28;19959;-70
2023/12/03 04:39:35;;;;;;;;;;;-4.00;99.90;;;;;;5106427;28;20281;-69
2023/12/03 04:42:03;;;;;;;;;;;-4.10;99.90;;;;;;5106316;28;19927;-70
2023/12/03 04:44:31;;;;;;;;;;;-4.20;99.90;;;;;;5105966;28;19987;-70
2023/12/03 04:46:58;;;;;;;;;;;-4.10;99.90;;;;;;5104766;28;19928;-70
2023/12/03 04:49:25;;;;;;;;;;;-4.30;99.90;;;;;;5106168;28;19988;-70
2023/12/03 04:51:51;;;;;;;;;;;-4.20;99.90;;;;;;5106367;28;20004;-68
2023/12/03 04:54:18;;;;;;;;;;;-4.30;99.90;;;;;;5105221;28;20165;-70
2023/12/03 04:56:45;;;;;;;;;;;-4.30;99.90;;;;;;5106465;28;19926;-70
2023/12/03 04:59:13;;;;;;;;;;;-4.30;99.90;;;;;;5105958;28;20117;-70
2023/12/03 05:01:39;;;;;;;;;;;-4.30;99.90;;;;;;5105757;28;19979;-69
2023/12/03 05:04:06;;;;;;;;;;;-4.30;99.90;;;;;;5105265;28;20109;-69
2023/12/03 05:06:34;;;;;;;;;;;-4.30;99.90;;;;;;5104899;28;20131;-71
2023/12/03 05:09:01;;;;;;;;;;;-4.30;99.90;;;;;;5105620;28;20265;-70
2023/12/03 05:11:28;;;;;;;;;;;-4.30;99.90;;;;;;5105845;28;19920;-70
2023/12/03 05:13:54;;;;;;;;;;;-4.20;99.90;;;;;;5105252;28;19983;-70
2023/12/03 05:16:22;;;;;;;;;;;-4.20;99.90;;;;;;5105656;28;20236;-70
2023/12/03 05:18:49;;;;;;;;;;;-4.30;99.90;;;;;;5101838;28;20229;-70
2023/12/03 05:21:15;;;;;;;;;;;-4.30;99.90;;;;;;5105828;28;20002;-70
2023/12/03 05:23:42;;;;;;;;;;;-4.40;99.90;;;;;;5105063;28;20117;-70
2023/12/03 05:26:09;;;;;;;;;;;-4.40;99.90;;;;;;5105732;28;19920;-69
2023/12/03 05:28:35;;;;;;;;;;;-4.40;99.90;;;;;;5105611;28;19943;-69
2023/12/03 05:31:04;;;;;;;;;;;-4.40;99.90;;;;;;5105322;28;19982;-70
2023/12/03 05:33:32;;;;;;;;;;;-4.40;99.90;;;;;;5104052;28;19920;-70
2023/12/03 05:35:59;;;;;;;;;;;-4.40;99.90;;;;;;5105523;28;19956;-70
2023/12/03 05:38:25;;;;;;;;;;;-4.50;99.90;;;;;;5105359;28;20002;-70
2023/12/03 05:40:51;;;;;;;;;;;-4.60;99.90;;;;;;5104011;28;19987;-70
2023/12/03 05:43:18;;;;;;;;;;;-4.60;99.90;;;;;;5104942;28;19920;-70
2023/12/03 05:45:44;;;;;;;;;;;-4.70;99.90;;;;;;5105330;28;19983;-70
2023/12/03 05:48:11;;;;;;;;;;;-4.80;99.90;;;;;;5105175;28;19920;-70
2023/12/03 05:50:39;;;;;;;;;;;-4.70;99.90;;;;;;5104955;28;19920;-68
2023/12/03 05:53:06;;;;;;;;;;;-4.70;99.90;;;;;;5105153;28;19991;-70
2023/12/03 05:55:33;;;;;;;;;;;-4.70;99.90;;;;;;5104502;28;20229;-70
2023/12/03 05:58:00;;;;;;;;;;;-4.80;99.90;;;;;;5104987;28;19971;-70
2023/12/03 06:00:26;;;;;;;;;;;-4.80;99.90;;;;;;5104963;28;20218;-70
2023/12/03 06:02:53;;;;;;;;;;;-4.90;99.90;;;;;;5104792;28;19927;-70
2023/12/03 06:05:20;;;;;;;;;;;-4.90;99.90;;;;;;5104555;28;19920;-70
2023/12/03 06:07:48;;;;;;;;;;;-4.90;99.90;;;;;;5104850;28;19920;-70
2023/12/03 06:10:14;;;;;;;;;;;-5.00;99.90;;;;;;5105014;28;19991;-69
2023/12/03 06:12:41;;;;;;;;;;;-5.10;99.90;;;;;;5104436;28;20396;-70
2023/12/03 06:15:08;;;;;;;;;;;-5.00;99.90;;;;;;5104286;28;19920;-70
2023/12/03 06:17:35;;;;;;;;;;;-5.00;99.90;;;;;;5103348;28;19925;-70
2023/12/03 06:20:02;;;;;;;;;;;-5.00;99.90;;;;;;5104653;28;20176;-70
2023/12/03 06:22:29;;;;;;;;;;;-4.90;99.90;;;;;;5104332;28;20351;-70
2023/12/03 06:24:57;;;;;;;;;;;-4.90;99.90;;;;;;5104016;28;19951;-68
2023/12/03 06:27:24;;;;;;;;;;;-4.90;99.90;;;;;;5104485;28;19986;-70
2023/12/03 06:29:50;;;;;;;;;;;-4.90;99.90;;;;;;5104527;28;19924;-70
2023/12/03 06:32:20;;;;;;;;;;;-4.90;99.90;;;;;;5104550;28;20250;-70
2023/12/03 06:34:46;;;;;;;;;;;-4.80;99.90;;;;;;5103750;28;19920;-70
2023/12/03 06:37:13;;;;;;;;;;;-4.90;99.90;;;;;;5104163;28;19920;-70
2023/12/03 06:39:39;;;;;;;;;;;-4.90;99.90;;;;;;5104317;28;19955;-70
2023/12/03 06:42:07;;;;;;;;;;;-4.90;99.90;;;;;;5104018;28;20210;-70
2023/12/03 06:44:34;;;;;;;;;;;-5.00;99.90;;;;;;5103218;28;19959;-70
2023/12/03 06:47:01;;;;;;;;;;;-4.90;99.90;;;;;;5103969;28;20166;-69
2023/12/03 06:49:27;;;;;;;;;;;-5.00;99.90;;;;;;5104280;28;19987;-70
2023/12/03 06:51:54;;;;;;;;;;;-5.00;99.90;;;;;;5104078;28;20113;-70
2023/12/03 06:54:21;;;;;;;;;;;-4.90;99.90;;;;;;5103465;28;19926;-70
2023/12/03 06:56:47;;;;;;;;;;;-4.90;99.90;;;;;;5103966;28;20117;-70
2023/12/03 06:59:15;;;;;;;;;;;-4.90;99.90;;;;;;5103916;28;19920;-70
2023/12/03 07:01:42;;;;;;;;;;;-4.90;99.90;;;;;;5103680;28;19926;-70
2023/12/03 07:04:08;;;;;;;;;;;-4.90;99.90;;;;;;5103190;28;19927;-68
2023/12/03 07:06:35;;;;;;;;;;;-4.90;99.90;;;;;;5103901;28;19987;-70
2023/12/03 07:09:01;;;;;;;;;;;-4.90;99.90;;;;;;5103798;28;19927;-70
2023/12/03 07:11:29;;;;;;;;;;;-4.90;99.90;;;;;;5103950;28;19954;-70
2023/12/03 07:13:56;;;;;;;;;;;-4.90;99.90;;;;;;5102761;28;19927;-69
2023/12/03 07:16:24;;;;;;;;;;;-5.00;99.90;;;;;;5103576;28;20221;-70
2023/12/03 07:18:50;;;;;;;;;;;-5.00;99.90;;;;;;5103761;28;20018;-70
2023/12/03 07:21:17;;;;;;;;;;;-5.00;99.90;;;;;;5103753;28;19920;-70
2023/12/03 07:23:44;;;;;;;;;;;-5.10;99.90;;;;;;5102786;28;19951;-70
2023/12/03 07:26:10;;;;;;;;;;;-5.10;99.90;;;;;;5103864;28;19992;-70
2023/12/03 07:28:37;;;;;;;;;;;-5.10;99.90;;;;;;5102753;28;19992;-70
2023/12/03 07:31:04;;;;;;;;;;;-5.10;99.90;;;;;;5095224;28;19920;-70
2023/12/03 07:33:32;;;;;;;;;;;-5.20;99.90;;;;;;5102891;28;20146;-70
2023/12/03 07:35:59;;;;;;;;;;;-5.20;99.90;;;;;;5103638;28;19973;-70
2023/12/03 07:38:26;;;;;;;;;;;-5.30;99.90;;;;;;5103497;28;19951;-70
2023/12/03 07:40:52;;;;;;;;;;;-5.40;99.90;;;;;;5103535;28;19958;-70
2023/12/03 07:43:19;;;;;;;;;;;-5.50;99.90;;;;;;5102789;28;20271;-69
2023/12/03 07:45:45;;;;;;;;;;;-5.50;99.90;;;;;;5103437;28;19971;-70
2023/12/03 07:48:15;;;;;;;;;;;-5.40;99.90;;;;;;5103400;28;19920;-70
2023/12/03 07:50:43;;;;;;;;;;;-5.40;99.90;;;;;;5103190;28;19920;-70
2023/12/03 07:53:10;;;;;;;;;;;-5.30;99.90;;;;;;5103394;28;19921;-69
2023/12/03 07:55:39;;;;;;;;;;;-5.30;99.90;;;;;;5102981;28;20166;-70
2023/12/03 07:58:08;;;;;;;;;;;-5.20;99.90;;;;;;5095561;28;19928;-69
2023/12/03 08:00:34;;;;;;;;;;;-5.10;99.90;;;;;;5103275;28;20118;-69
2023/12/03 08:03:01;;;;;;;;;;;-5.00;99.90;;;;;;5102771;28;19927;-69
2023/12/03 08:05:28;;;;;;;;;;;-4.90;99.90;;;;;;5102526;28;19920;-69
2023/12/03 08:07:56;;;;;;;;;;;-4.90;99.90;;;;;;5102841;28;19926;-69
2023/12/03 08:10:23;;;;;;;;;;;-4.80;99.90;;;;;;5103317;28;19927;-70
2023/12/03 08:12:49;;;;;;;;;;;-4.80;99.90;;;;;;5103065;28;19987;-69
2023/12/03 08:15:16;;;;;;;;;;;-4.70;99.90;;;;;;5102834;28;19920;-69
2023/12/03 08:17:43;;;;;;;;;;;-4.60;99.90;;;;;;5102727;28;19997;-70
2023/12/03 08:20:10;;;;;;;;;;;-4.60;99.90;;;;;;5103281;28;19927;-69
2023/12/03 08:22:37;;;;;;;;;;;-4.50;99.90;;;;;;5102982;28;19958;-68
2023/12/03 08:25:06;;;;;;;;;;;-4.50;99.90;;;;;;5099478;28;19979;-69
2023/12/03 08:27:33;;;;;;;;;;;-4.40;99.90;;;;;;5101994;28;19962;-69
2023/12/03 08:30:00;;;;;;;;;;;-4.50;99.90;;;;;;5095503;28;19932;-69
2023/12/03 08:32:26;;;;;;;;;;;-4.50;99.90;;;;;;5100119;28;19982;-70
2023/12/03 08:34:53;;;;;;;;;;;-4.50;99.90;;;;;;5105970;28;20113;-69
2023/12/03 08:37:19;;;;;;;;;;;-4.40;99.90;;;;;;5103804;28;19926;-69
2023/12/03 08:39:46;;;;;;;;;;;-4.30;99.90;;;;;;5106670;28;20084;-69
2023/12/03 08:42:16;;;;;;;;;;;-4.30;99.90;;;;;;5106900;28;20264;-69
2023/12/03 08:44:42;;;;;;;;;;;-4.20;99.90;;;;;;5112674;27;19986;-69
2023/12/03 08:47:09;;;;;;;;;;;-4.20;99.90;;;;;;5106453;28;20003;-69
2023/12/03 08:49:36;;;;;;;;;;;-4.10;99.90;;;;;;5105911;28;19924;-69
2023/12/03 08:52:02;;;;;;;;;;;-4.10;99.90;;;;;;5106415;28;19991;-68
2023/12/03 08:54:30;;;;;;;;;;;-4.10;99.90;;;;;;5105364;28;20116;-69
2023/12/03 08:56:56;;;;;;;;;;;-4.10;99.90;;;;;;5106413;28;19920;-69
2023/12/03 08:59:25;;;;;;;;;;;-4.00;99.90;;;;;;5106198;28;19926;-69
2023/12/03 09:01:51;;;;;;;;;;;-4.00;99.90;;;;;;5105785;28;20205;-69
2023/12/03 09:04:18;;;;;;;;;;;-4.00;99.90;;;;;;5105546;28;19920;-70
2023/12/03 09:06:46;;;;;;;;;;;-4.10;99.90;;;;;;5105893;28;20102;-70
2023/12/03 09:09:12;;;;;;;;;;;-4.10;99.90;;;;;;5105728;28;19955;-70
2023/12/03 09:11:41;;;;;;;;;;;-4.00;99.90;;;;;;5105602;28;19959;-69
2023/12/03 09:14:08;;;;;;;;;;;-4.00;99.90;;;;;;5105153;28;19951;-70
2023/12/03 09:16:36;;;;;;;;;;;-3.90;99.90;;;;;;5105645;28;19920;-71
2023/12/03 09:19:02;;;;;;;;;;;-3.90;99.90;;;;;;5105639;28;19955;-70
2023/12/03 09:21:29;;;;;;;;;;;-3.80;99.90;;;;;;5105890;28;19988;-70
2023/12/03 09:23:56;;;;;;;;;;;-3.80;99.90;;;;;;5104814;28;19959;-69
2023/12/03 09:26:23;;;;;;;;;;;-3.80;99.90;;;;;;5103920;28;19920;-68
2023/12/03 09:28:49;;;;;;;;;;;-3.70;99.90;;;;;;5105337;28;20236;-69
2023/12/03 09:31:19;;;;;;;;;;;-3.60;99.90;;;;;;5105070;28;20233;-69
2023/12/03 09:33:47;;;;;;;;;;;-3.60;99.90;;;;;;5102657;28;19987;-68
2023/12/03 09:36:13;;;;;;;;;;;-3.50;99.90;;;;;;5105752;28;19987;-69
2023/12/03 09:38:40;;;;;;;;;;;-3.40;99.90;;;;;;5105401;28;19942;-70
2023/12/03 09:41:09;;;;;;;;;;;-3.50;99.90;;;;;;5105547;28;19958;-69
2023/12/03 09:43:37;;;;;;;;;;;-3.40;99.90;;;;;;5104764;28;19931;-70
2023/12/03 09:46:06;;;;;;;;;;;-3.40;99.90;;;;;;5097400;28;19954;-69
2023/12/03 09:48:34;;;;;;;;;;;-3.40;99.90;;;;;;5105255;28;19920;-69
2023/12/03 09:51:02;;;;;;;;;;;-3.30;99.90;;;;;;5104724;28;19985;-69
2023/12/03 09:53:31;;;;;;;;;;;-3.20;99.90;;;;;;5104416;28;19958;-69
2023/12/03 09:55:58;;;;;;;;;;;-3.20;99.90;;;;;;5105264;28;19920;-70
2023/12/03 09:58:25;;;;;;;;;;;-3.00;99.90;;;;;;5105205;28;20188;-69
2023/12/03 10:00:53;;;;;;;;;;;-2.90;99.90;;;;;;5104747;28;19920;-69
2023/12/03 10:03:19;;;;;;;;;;;-2.80;99.90;;;;;;5104398;28;19963;-69
2023/12/03 10:05:46;;;;;;;;;;;-2.70;99.90;;;;;;5104794;28;19978;-70
2023/12/03 10:08:14;;;;;;;;;;;-2.70;99.90;;;;;;5104750;28;19960;-70
2023/12/03 10:10:42;;;;;;;;;;;-2.70;99.90;;;;;;5097505;28;20118;-70
2023/12/03 10:13:11;;;;;;;;;;;-2.60;99.90;;;;;;5104511;28;19920;-70
2023/12/03 10:15:38;;;;;;;;;;;-2.50;99.90;;;;;;5104244;28;19920;-70
2023/12/03 10:18:05;;;;;;;;;;;-2.50;99.90;;;;;;5104762;28;19920;-69
2023/12/03 10:20:32;;;;;;;;;;;-2.40;99.90;;;;;;5104654;28;19927;-69
2023/12/03 10:22:59;;;;;;;;;;;-2.30;99.90;;;;;;5103988;28;19928;-68
2023/12/03 10:25:27;;;;;;;;;;;-2.20;99.90;;;;;;5104168;28;19926;-69
2023/12/03 10:27:54;;;;;;;;;;;-2.00;99.90;;;;;;5104313;28;19968;-69
2023/12/03 10:30:21;;;;;;;;;;;-1.90;99.90;;;;;;5104193;28;19991;-67
2023/12/03 10:32:48;;;;;;;;;;;-1.90;99.90;;;;;;5103889;28;19962;-69
2023/12/03 10:35:14;;;;;;;;;;;-1.70;99.90;;;;;;5103641;28;19920;-69
2023/12/03 10:37:41;;;;;;;;;;;-1.70;99.90;;;;;;5103904;28;20273;-69
2023/12/03 10:40:08;;;;;;;;;;;-1.70;99.90;;;;;;5104400;28;19948;-68
2023/12/03 10:42:37;;;;;;;;;;;-1.60;99.90;;;;;;5103672;28;19919;-69
2023/12/03 10:45:06;;;;;;;;;;;-1.50;99.90;;;;;;5101628;28;20261;-68
2023/12/03 10:47:32;;;;;;;;;;;-1.40;99.90;;;;;;5103841;28;20265;-69
2023/12/03 10:50:00;;;;;;;;;;;-1.30;99.90;;;;;;5103812;28;19947;-68
2023/12/03 10:52:27;;;;;;;;;;;-1.10;99.90;;;;;;5103954;28;19920;-69
2023/12/03 10:54:53;;;;;;;;;;;-0.90;99.90;;;;;;5103251;28;19988;-69
2023/12/03 10:57:20;;;;;;;;;;;-0.70;99.90;;;;;;5103986;28;19920;-67
2023/12/03 10:59:53;;;;;;;;;;;-0.50;99.90;;;;;;5103579;28;20152;-69
2023/12/03 11:02:22;;;;;;;;;;;-0.40;99.90;;;;;;5103328;28;19968;-68
2023/12/03 11:04:51;;;;;;;;;;;-0.30;99.90;;;;;;5102637;28;19972;-68
2023/12/03 11:07:19;;;;;;;;;;;-0.10;99.90;;;;;;5103914;28;20323;-69
2023/12/03 11:09:46;;;;;;;;;;;0.00;99.90;;;;;;5101725;28;19920;-68
2023/12/03 11:12:13;;;;;;;;;;;0.10;99.90;;;;;;5103761;28;19955;-69
2023/12/03 11:14:39;;;;;;;;;;;-0.10;99.90;;;;;;5102785;28;19991;-69
2023/12/03 11:17:11;;;;;;;;;;;-0.10;99.90;;;;;;5103709;28;20172;-69
2023/12/03 11:19:40;;;;;;;;;;;-0.10;99.90;;;;;;5099134;28;19953;-69
2023/12/03 11:22:13;;;;;;;;;;;0.20;99.90;;;;;;5095826;28;19951;-69
2023/12/03 11:24:50;;;;;;;;;;;0.40;99.90;;;;;;5102743;28;19991;-69
2023/12/03 11:27:16;;;;;;;;;;;0.40;99.90;;;;;;5103500;28;20105;-69
2023/12/03 11:29:45;;;;;;;;;;;0.40;99.90;;;;;;5102635;28;19958;-69
2023/12/03 11:32:13;;;;;;;;;;;0.20;99.90;;;;;;5103238;28;19916;-70
2023/12/03 11:34:40;;;;;;;;;;;0.20;99.90;;;;;;5103122;28;19987;-69
2023/12/03 11:37:09;;;;;;;;;;;0.30;99.90;;;;;;5103828;28;19927;-69
2023/12/03 11:39:37;;;;;;;;;;;0.30;99.90;;;;;;5103702;28;19928;-69
2023/12/03 11:42:06;;;;;;;;;;;0.40;99.90;;;;;;5095264;28;19920;-70
2023/12/03 11:44:33;;;;;;;;;;;0.40;99.90;;;;;;5102837;28;19923;-69
2023/12/03 11:47:03;;;;;;;;;;;0.60;99.90;;;;;;5103618;28;20018;-69
2023/12/03 11:49:33;;;;;;;;;;;0.50;99.90;;;;;;5103563;28;20117;-69
2023/12/03 11:52:00;;;;;;;;;;;0.50;99.90;;;;;;5103505;28;19991;-69
2023/12/03 11:54:29;;;;;;;;;;;0.50;99.90;;;;;;5102711;28;19958;-69
2023/12/03 11:56:55;;;;;;;;;;;0.70;99.90;;;;;;5103207;28;20210;-69
2023/12/03 11:59:22;;;;;;;;;;;0.80;99.90;;;;;;5103900;28;19920;-69
2023/12/03 12:01:49;;;;;;;;;;;0.70;99.90;;;;;;5103449;28;19952;-69
2023/12/03 12:04:22;;;;;;;;;;;0.70;99.90;;;;;;5103017;28;20007;-69
2023/12/03 12:06:50;;;;;;;;;;;0.70;99.90;;;;;;5103321;28;19928;-71
2023/12/03 12:09:23;;;;;;;;;;;0.90;99.90;;;;;;5103103;28;19988;-70
2023/12/03 12:11:50;;;;;;;;;;;1.10;99.90;;;;;;5103310;28;19920;-70
2023/12/03 12:14:17;;;;;;;;;;;1.30;99.90;;;;;;5103403;28;19920;-73
2023/12/03 12:16:45;;;;;;;;;;;1.30;99.90;;;;;;5106882;28;19920;-71
2023/12/03 12:19:12;;;;;;;;;;;1.50;99.90;;;;;;5106227;28;19920;-72
2023/12/03 12:21:52;;;;;;;;;;;1.60;99.90;;;;;;5106818;28;19920;-72
2023/12/03 12:24:18;;;;;;;;;;;1.70;99.90;;;;;;5106283;28;20108;-70
2023/12/03 12:26:45;;;;;;;;;;;1.70;99.90;;;;;;5106556;28;19991;-69
2023/12/03 12:29:12;;;;;;;;;;;1.80;99.90;;;;;;5106017;28;20280;-69
2023/12/03 12:31:39;;;;;;;;;;;1.90;99.90;;;;;;5106099;28;19920;-69
2023/12/03 12:34:05;;;;;;;;;;;1.80;99.90;;;;;;5106294;28;19921;-69
2023/12/03 12:36:32;;;;;;;;;;;1.90;99.90;;;;;;5106804;28;19987;-69
2023/12/03 12:39:00;;;;;;;;;;;1.90;99.90;;;;;;5106429;28;20197;-69
2023/12/03 12:41:36;;;;;;;;;;;1.90;99.90;;;;;;5106191;28;19986;-68
2023/12/03 12:44:03;;;;;;;;;;;1.70;99.90;;;;;;5105625;28;19921;-69
2023/12/03 12:46:31;;;;;;;;;;;1.50;99.90;;;;;;5106793;28;19927;-69
2023/12/03 12:49:12;;;;;;;;;;;1.40;99.90;;;;;;5106427;28;19943;-69
2023/12/03 12:51:39;;;;;;;;;;;1.30;99.90;;;;;;5106463;28;19982;-69
2023/12/03 12:54:07;;;;;;;;;;;1.30;99.90;;;;;;5105881;28;20144;-69
2023/12/03 12:56:34;;;;;;;;;;;1.20;99.90;;;;;;5106246;28;19920;-69
2023/12/03 12:59:00;;;;;;;;;;;1.10;99.90;;;;;;5106084;28;19980;-69
2023/12/03 13:01:28;;;;;;;;;;;1.20;99.90;;;;;;5106045;28;19920;-69
2023/12/03 13:03:55;;;;;;;;;;;1.10;99.90;;;;;;5105331;28;19920;-69
2023/12/03 13:06:21;;;;;;;;;;;1.10;99.90;;;;;;5106053;28;19926;-69
2023/12/03 13:08:48;;;;;;;;;;;1.00;99.90;;;;;;5105813;28;19983;-69
2023/12/03 13:11:16;;;;;;;;;;;1.00;99.90;;;;;;5106086;28;19920;-69
2023/12/03 13:13:43;;;;;;;;;;;1.00;99.90;;;;;;5105349;28;20175;-69
2023/12/03 13:16:10;;;;;;;;;;;1.00;99.90;;;;;;5106076;28;19920;-69
2023/12/03 13:18:38;;;;;;;;;;;1.10;99.90;;;;;;5105608;28;19919;-69
2023/12/03 13:21:05;;;;;;;;;;;1.00;99.90;;;;;;5105639;28;20148;-69
2023/12/03 13:23:32;;;;;;;;;;;1.10;99.90;;;;;;5104176;28;19920;-69
2023/12/03 13:25:59;;;;;;;;;;;1.10;99.90;;;;;;5104837;28;19928;-69
2023/12/03 13:28:27;;;;;;;;;;;1.10;99.90;;;;;;5105566;28;19987;-69
2023/12/03 13:30:53;;;;;;;;;;;0.70;99.90;;;;;;5105738;28;19999;-69
2023/12/03 13:33:20;;;;;;;;;;;0.50;99.90;;;;;;5104731;28;19920;-69
2023/12/03 13:35:47;;;;;;;;;;;0.40;99.90;;;;;;5105327;28;19926;-69
2023/12/03 13:38:13;;;;;;;;;;;0.30;99.90;;;;;;5105289;28;20090;-69
2023/12/03 13:40:40;;;;;;;;;;;0.20;99.90;;;;;;5105547;28;19920;-70
2023/12/03 13:43:07;;;;;;;;;;;0.10;99.90;;;;;;5105035;28;20275;-69
2023/12/03 13:45:35;;;;;;;;;;;-0.10;99.90;;;;;;5104826;28;19924;-69
2023/12/03 13:48:02;;;;;;;;;;;-0.20;99.90;;;;;;5104886;28;19931;-69
2023/12/03 13:50:28;;;;;;;;;;;-0.30;99.90;;;;;;5104792;28;20117;-69
2023/12/03 13:52:55;;;;;;;;;;;-0.40;99.90;;;;;;5104954;28;19927;-69
2023/12/03 13:55:22;;;;;;;;;;;-0.50;99.90;;;;;;5104277;28;20556;-69
2023/12/03 13:57:48;;;;;;;;;;;-0.70;99.90;;;;;;5105089;28;19920;-69
2023/12/03 14:00:16;;;;;;;;;;;-0.80;99.90;;;;;;5105003;28;19951;-69
2023/12/03 14:02:46;;;;;;;;;;;-1.00;99.90;;;;;;5104788;28;19934;-69
2023/12/03 14:05:12;;;;;;;;;;;-1.00;99.90;;;;;;5104328;28;19920;-69
2023/12/03 14:07:39;;;;;;;;;;;-1.00;99.90;;;;;;5104571;28;19952;-69
2023/12/03 14:10:08;;;;;;;;;;;-1.00;99.90;;;;;;5104489;28;20253;-69
2023/12/03 14:12:35;;;;;;;;;;;-1.00;99.90;;;;;;5104795;28;19955;-69
2023/12/03 14:15:03;;;;;;;;;;;-1.10;99.90;;;;;;5104119;28;20137;-69
2023/12/03 14:17:29;;;;;;;;;;;-1.10;99.90;;;;;;5104814;28;19957;-69